createdAt,value
2017-12-07T00:00:05.187Z,0
2017-12-07T00:01:05.256Z,0
2017-12-07T00:02:05.293Z,0
2017-12-07T00:03:05.468Z,0
2017-12-07T00:04:05.233Z,0
2017-12-07T00:05:04.987Z,0
2017-12-07T00:06:05.251Z,0
2017-12-07T00:07:05.268Z,0
2017-12-07T00:08:05.535Z,0
2017-12-07T00:09:05.551Z,0
2017-12-07T00:10:05.574Z,0
2017-12-07T00:11:05.321Z,0
2017-12-07T00:12:05.300Z,0
2017-12-07T00:13:05.595Z,0
2017-12-07T00:14:05.608Z,0
2017-12-07T00:15:05.372Z,0
2017-12-07T00:16:05.381Z,0
2017-12-07T00:17:05.290Z,0
2017-12-07T00:18:05.411Z,0
2017-12-07T00:19:05.674Z,0
2017-12-07T00:20:05.441Z,0
2017-12-07T00:21:05.443Z,0
2017-12-07T00:22:05.460Z,0
2017-12-07T00:23:05.720Z,0
2017-12-07T00:24:05.737Z,0
2017-12-07T00:25:05.507Z,0
2017-12-07T00:26:05.505Z,0
2017-12-07T00:27:05.775Z,0
2017-12-07T00:28:05.798Z,0
2017-12-07T00:29:05.548Z,0
2017-12-07T00:30:05.808Z,0
2017-12-07T00:31:05.843Z,0
2017-12-07T00:32:05.894Z,0
2017-12-07T00:33:05.343Z,0
2017-12-07T00:34:05.612Z,0
2017-12-07T00:35:05.878Z,0
2017-12-07T00:36:05.899Z,0
2017-12-07T00:37:05.648Z,0
2017-12-07T00:38:05.675Z,0
2017-12-07T00:39:05.932Z,0
2017-12-07T00:40:05.947Z,0
2017-12-07T00:41:05.703Z,0
2017-12-07T00:42:05.712Z,0
2017-12-07T00:43:05.981Z,0
2017-12-07T00:44:05.996Z,0
2017-12-07T00:45:06.005Z,0
2017-12-07T00:46:06.020Z,0
2017-12-07T00:47:06.088Z,0
2017-12-07T00:48:05.558Z,0
2017-12-07T00:49:05.808Z,0
2017-12-07T00:50:05.565Z,0
2017-12-07T00:51:06.107Z,0
2017-12-07T00:52:05.845Z,0
2017-12-07T00:53:05.602Z,0
2017-12-07T00:54:06.123Z,0
2017-12-07T00:55:05.889Z,0
2017-12-07T00:56:05.897Z,0
2017-12-07T00:57:05.657Z,0
2017-12-07T00:58:06.178Z,0
2017-12-07T00:59:06.189Z,0
2017-12-07T01:00:05.705Z,0
2017-12-07T01:01:06.219Z,0
2017-12-07T01:02:06.299Z,0
2017-12-07T01:03:05.991Z,0
2017-12-07T01:04:06.253Z,0
2017-12-07T01:05:06.271Z,0
2017-12-07T01:06:05.774Z,0
2017-12-07T01:07:05.808Z,0
2017-12-07T01:08:06.051Z,0
2017-12-07T01:09:06.330Z,0
2017-12-07T01:10:05.833Z,0
2017-12-07T01:11:06.349Z,0
2017-12-07T01:12:06.121Z,0
2017-12-07T01:13:06.117Z,0
2017-12-07T01:14:06.458Z,0
2017-12-07T01:15:06.147Z,0
2017-12-07T01:16:06.159Z,0
2017-12-07T01:17:06.232Z,0
2017-12-07T01:18:06.185Z,0
2017-12-07T01:19:06.456Z,0
2017-12-07T01:20:05.955Z,0
2017-12-07T01:21:05.718Z,0
2017-12-07T01:22:06.242Z,0
2017-12-07T01:23:06.499Z,0
2017-12-07T01:24:06.011Z,0
2017-12-07T01:25:06.277Z,0
2017-12-07T01:26:06.579Z,0
2017-12-07T01:27:06.047Z,0
2017-12-07T01:28:06.320Z,0
2017-12-07T01:29:06.326Z,0
2017-12-07T01:30:06.343Z,0
2017-12-07T01:31:06.365Z,0
2017-12-07T01:32:06.434Z,0
2017-12-07T01:33:06.632Z,0
2017-12-07T01:34:06.143Z,0
2017-12-07T01:35:06.658Z,0
2017-12-07T01:36:06.164Z,0
2017-12-07T01:37:06.431Z,0
2017-12-07T01:38:06.188Z,0
2017-12-07T01:39:06.713Z,0
2017-12-07T01:40:06.479Z,0
2017-12-07T01:41:06.738Z,0
2017-12-07T01:42:06.750Z,0
2017-12-07T01:43:06.503Z,0
2017-12-07T01:44:06.773Z,0
2017-12-07T01:45:06.786Z,0
2017-12-07T01:46:06.792Z,0
2017-12-07T01:47:06.859Z,0
2017-12-07T01:48:06.824Z,0
2017-12-07T01:49:06.594Z,0
2017-12-07T01:50:06.613Z,0
2017-12-07T01:51:06.859Z,0
2017-12-07T01:52:06.870Z,0
2017-12-07T01:53:06.882Z,0
2017-12-07T01:54:06.646Z,0
2017-12-07T01:55:06.913Z,0
2017-12-07T01:56:06.681Z,0
2017-12-07T01:57:06.702Z,0
2017-12-07T01:58:06.950Z,0
2017-12-07T01:59:06.963Z,0
2017-12-07T02:00:06.722Z,0
2017-12-07T02:01:06.735Z,0
2017-12-07T02:02:06.799Z,0
2017-12-07T02:03:07.017Z,0
2017-12-07T02:04:07.022Z,0
2017-12-07T02:05:07.043Z,0
2017-12-07T02:06:06.796Z,0
2017-12-07T02:07:06.813Z,0
2017-12-07T02:08:06.576Z,0
2017-12-07T02:09:07.088Z,0
2017-12-07T02:10:06.853Z,0
2017-12-07T02:11:06.861Z,0
2017-12-07T02:12:07.228Z,0
2017-12-07T02:13:07.151Z,0
2017-12-07T02:14:07.166Z,0
2017-12-07T02:15:06.913Z,0
2017-12-07T02:16:06.940Z,0
2017-12-07T02:17:07.269Z,0
2017-12-07T02:18:06.954Z,0
2017-12-07T02:19:07.227Z,0
2017-12-07T02:20:07.233Z,0
2017-12-07T02:21:07.248Z,0
2017-12-07T02:22:07.020Z,0
2017-12-07T02:23:07.272Z,0
2017-12-07T02:24:07.335Z,0
2017-12-07T02:25:07.304Z,0
2017-12-07T02:26:07.305Z,0
2017-12-07T02:27:07.072Z,0
2017-12-07T02:28:06.833Z,0
2017-12-07T02:29:07.345Z,0
2017-12-07T02:30:07.370Z,0
2017-12-07T02:31:07.402Z,0
2017-12-07T02:32:07.206Z,0
2017-12-07T02:33:07.165Z,0
2017-12-07T02:34:07.418Z,0
2017-12-07T02:35:07.173Z,0
2017-12-07T02:36:07.438Z,0
2017-12-07T02:37:07.203Z,0
2017-12-07T02:38:06.955Z,0
2017-12-07T02:39:06.967Z,0
2017-12-07T02:40:07.489Z,0
2017-12-07T02:41:07.498Z,0
2017-12-07T02:42:07.004Z,0
2017-12-07T02:43:07.525Z,0
2017-12-07T02:44:07.608Z,0
2017-12-07T02:45:07.301Z,0
2017-12-07T02:46:07.057Z,0
2017-12-07T02:47:07.374Z,0
2017-12-07T02:48:07.589Z,0
2017-12-07T02:49:07.345Z,0
2017-12-07T02:50:07.618Z,0
2017-12-07T02:51:07.374Z,0
2017-12-07T02:52:07.387Z,0
2017-12-07T02:53:07.651Z,0
2017-12-07T02:54:07.423Z,0
2017-12-07T02:55:07.420Z,0
2017-12-07T02:56:07.445Z,0
2017-12-07T02:57:07.719Z,0
2017-12-07T02:58:07.709Z,0
2017-12-07T02:59:07.216Z,0
2017-12-07T03:00:07.500Z,0
2017-12-07T03:01:06.990Z,0
2017-12-07T03:02:07.560Z,0
2017-12-07T03:03:07.531Z,0
2017-12-07T03:04:07.535Z,0
2017-12-07T03:05:07.552Z,0
2017-12-07T03:06:07.820Z,0
2017-12-07T03:07:07.824Z,0
2017-12-07T03:08:07.836Z,0
2017-12-07T03:09:07.375Z,0
2017-12-07T03:10:07.616Z,0
2017-12-07T03:11:07.870Z,0
2017-12-07T03:12:07.885Z,0
2017-12-07T03:13:07.648Z,0
2017-12-07T03:14:07.949Z,0
2017-12-07T03:15:07.918Z,0
2017-12-07T03:16:07.933Z,0
2017-12-07T03:17:07.998Z,0
2017-12-07T03:18:07.703Z,0
2017-12-07T03:19:07.965Z,0
2017-12-07T03:20:07.474Z,0
2017-12-07T03:21:07.992Z,0
2017-12-07T03:22:07.752Z,0
2017-12-07T03:23:08.037Z,0
2017-12-07T03:24:07.771Z,0
2017-12-07T03:25:07.792Z,0
2017-12-07T03:26:08.068Z,0
2017-12-07T03:27:08.061Z,0
2017-12-07T03:28:07.823Z,0
2017-12-07T03:29:07.580Z,0
2017-12-07T03:30:07.906Z,0
2017-12-07T03:31:07.611Z,0
2017-12-07T03:32:08.172Z,0
2017-12-07T03:33:08.131Z,0
2017-12-07T03:34:08.142Z,0
2017-12-07T03:35:08.218Z,0
2017-12-07T03:36:08.169Z,0
2017-12-07T03:37:08.186Z,0
2017-12-07T03:38:07.688Z,0
2017-12-07T03:39:08.209Z,0
2017-12-07T03:40:07.964Z,0
2017-12-07T03:41:07.980Z,0
2017-12-07T03:42:08.246Z,0
2017-12-07T03:43:08.023Z,0
2017-12-07T03:44:08.265Z,0
2017-12-07T03:45:08.349Z,0
2017-12-07T03:46:07.782Z,0
2017-12-07T03:47:08.104Z,0
2017-12-07T03:48:07.813Z,0
2017-12-07T03:49:07.565Z,0
2017-12-07T03:50:08.090Z,0
2017-12-07T03:51:08.352Z,0
2017-12-07T03:52:08.229Z,0
2017-12-07T03:53:08.383Z,0
2017-12-07T03:54:08.401Z,0
2017-12-07T03:55:08.149Z,0
2017-12-07T03:56:07.906Z,0
2017-12-07T03:57:08.428Z,0
2017-12-07T03:58:08.183Z,0
2017-12-07T03:59:08.201Z,0
2017-12-07T04:00:08.202Z,0
2017-12-07T04:01:08.222Z,0
2017-12-07T04:02:08.277Z,0
2017-12-07T04:03:08.554Z,0
2017-12-07T04:04:08.502Z,0
2017-12-07T04:05:08.517Z,0
2017-12-07T04:06:08.530Z,0
2017-12-07T04:07:08.549Z,0
2017-12-07T04:08:08.559Z,0
2017-12-07T04:09:08.062Z,0
2017-12-07T04:10:08.332Z,0
2017-12-07T04:11:08.338Z,0
2017-12-07T04:12:08.608Z,0
2017-12-07T04:13:08.617Z,0
2017-12-07T04:14:08.632Z,0
2017-12-07T04:15:08.136Z,0
2017-12-07T04:16:08.656Z,0
2017-12-07T04:17:08.718Z,0
2017-12-07T04:18:08.704Z,0
2017-12-07T04:19:08.691Z,0
2017-12-07T04:20:08.719Z,0
2017-12-07T04:21:08.918Z,0
2017-12-07T04:22:08.470Z,0
2017-12-07T04:23:08.488Z,0
2017-12-07T04:24:08.246Z,0
2017-12-07T04:25:08.817Z,0
2017-12-07T04:26:08.268Z,0
2017-12-07T04:27:08.791Z,0
2017-12-07T04:28:08.548Z,0
2017-12-07T04:29:08.315Z,0
2017-12-07T04:30:08.826Z,0
2017-12-07T04:31:08.838Z,0
2017-12-07T04:32:08.645Z,0
2017-12-07T04:33:08.861Z,0
2017-12-07T04:34:08.620Z,0
2017-12-07T04:35:08.899Z,0
2017-12-07T04:36:08.642Z,0
2017-12-07T04:37:08.909Z,0
2017-12-07T04:38:08.931Z,0
2017-12-07T04:39:08.936Z,0
2017-12-07T04:40:08.944Z,0
2017-12-07T04:41:08.703Z,0
2017-12-07T04:42:08.725Z,0
2017-12-07T04:43:08.977Z,0
2017-12-07T04:44:08.739Z,0
2017-12-07T04:45:08.818Z,0
2017-12-07T04:46:09.083Z,0
2017-12-07T04:47:09.182Z,0
2017-12-07T04:48:08.787Z,0
2017-12-07T04:49:08.802Z,0
2017-12-07T04:50:08.816Z,0
2017-12-07T04:51:09.101Z,0
2017-12-07T04:52:08.327Z,0
2017-12-07T04:53:08.843Z,0
2017-12-07T04:54:09.113Z,0
2017-12-07T04:55:08.879Z,0
2017-12-07T04:56:08.876Z,0
2017-12-07T04:57:08.648Z,0
2017-12-07T04:58:08.904Z,0
2017-12-07T04:59:09.171Z,0
2017-12-07T05:00:09.186Z,0
2017-12-07T05:01:08.940Z,0
2017-12-07T05:02:09.006Z,0
2017-12-07T05:03:09.224Z,0
2017-12-07T05:04:08.980Z,0
2017-12-07T05:05:09.241Z,0
2017-12-07T05:06:09.253Z,0
2017-12-07T05:07:09.269Z,0
2017-12-07T05:08:08.770Z,0
2017-12-07T05:09:08.785Z,0
2017-12-07T05:10:09.302Z,0
2017-12-07T05:11:09.314Z,0
2017-12-07T05:12:08.818Z,0
2017-12-07T05:13:09.336Z,0
2017-12-07T05:14:09.420Z,0
2017-12-07T05:15:09.360Z,0
2017-12-07T05:16:09.374Z,0
2017-12-07T05:17:09.292Z,0
2017-12-07T05:18:09.396Z,0
2017-12-07T05:19:09.158Z,0
2017-12-07T05:20:09.172Z,0
2017-12-07T05:21:09.435Z,0
2017-12-07T05:22:09.192Z,0
2017-12-07T05:23:09.468Z,0
2017-12-07T05:24:09.223Z,0
2017-12-07T05:25:08.973Z,0
2017-12-07T05:26:09.238Z,0
2017-12-07T05:27:09.251Z,0
2017-12-07T05:28:08.754Z,0
2017-12-07T05:29:09.525Z,0
2017-12-07T05:30:09.535Z,0
2017-12-07T05:31:09.297Z,0
2017-12-07T05:32:09.360Z,0
2017-12-07T05:33:09.322Z,0
2017-12-07T05:34:09.599Z,0
2017-12-07T05:35:09.347Z,0
2017-12-07T05:36:09.613Z,0
2017-12-07T05:37:09.621Z,0
2017-12-07T05:38:09.634Z,0
2017-12-07T05:39:08.897Z,0
2017-12-07T05:40:09.155Z,0
2017-12-07T05:41:09.427Z,0
2017-12-07T05:42:09.183Z,0
2017-12-07T05:43:09.693Z,0
2017-12-07T05:44:09.459Z,0
2017-12-07T05:45:09.726Z,0
2017-12-07T05:46:09.733Z,0
2017-12-07T05:47:09.293Z,0
2017-12-07T05:48:09.505Z,0
2017-12-07T05:49:09.573Z,0
2017-12-07T05:50:09.864Z,0
2017-12-07T05:51:09.790Z,0
2017-12-07T05:52:09.809Z,0
2017-12-07T05:53:09.308Z,0
2017-12-07T05:54:09.642Z,0
2017-12-07T05:55:09.847Z,0
2017-12-07T05:56:09.597Z,0
2017-12-07T05:57:09.868Z,0
2017-12-07T05:58:09.878Z,0
2017-12-07T05:59:09.384Z,0
2017-12-07T06:00:09.904Z,0
2017-12-07T06:01:09.660Z,0
2017-12-07T06:02:09.467Z,0
2017-12-07T06:03:09.702Z,0
2017-12-07T06:04:09.693Z,0
2017-12-07T06:05:09.452Z,0
2017-12-07T06:06:09.712Z,0
2017-12-07T06:07:09.991Z,0
2017-12-07T06:08:09.481Z,0
2017-12-07T06:09:10.052Z,0
2017-12-07T06:10:09.764Z,0
2017-12-07T06:11:10.020Z,0
2017-12-07T06:12:09.788Z,0
2017-12-07T06:13:09.541Z,0
2017-12-07T06:14:09.809Z,4
2017-12-07T06:15:10.070Z,4
2017-12-07T06:16:10.087Z,0
2017-12-07T06:17:10.159Z,0
2017-12-07T06:18:09.606Z,4
2017-12-07T06:19:10.147Z,4
2017-12-07T06:20:09.882Z,4
2017-12-07T06:21:09.902Z,4
2017-12-07T06:22:10.160Z,4
2017-12-07T06:23:10.172Z,4
2017-12-07T06:24:09.929Z,8
2017-12-07T06:25:09.947Z,8
2017-12-07T06:26:10.213Z,12
2017-12-07T06:27:09.970Z,12
2017-12-07T06:28:10.237Z,16
2017-12-07T06:29:10.449Z,16
2017-12-07T06:30:10.013Z,20
2017-12-07T06:31:09.507Z,24
2017-12-07T06:32:10.333Z,28
2017-12-07T06:33:10.295Z,32
2017-12-07T06:34:10.304Z,36
2017-12-07T06:35:09.814Z,40
2017-12-07T06:36:10.069Z,48
2017-12-07T06:37:10.344Z,60
2017-12-07T06:38:10.351Z,64
2017-12-07T06:39:10.373Z,72
2017-12-07T06:40:10.379Z,84
2017-12-07T06:41:09.632Z,96
2017-12-07T06:42:10.144Z,108
2017-12-07T06:43:10.162Z,120
2017-12-07T06:44:10.176Z,132
2017-12-07T06:45:10.206Z,148
2017-12-07T06:46:09.949Z,164
2017-12-07T06:47:10.210Z,184
2017-12-07T06:48:10.529Z,200
2017-12-07T06:49:10.489Z,216
2017-12-07T06:50:09.990Z,236
2017-12-07T06:51:10.551Z,256
2017-12-07T06:52:10.018Z,276
2017-12-07T06:53:10.292Z,300
2017-12-07T06:54:10.550Z,324
2017-12-07T06:55:10.564Z,348
2017-12-07T06:56:10.578Z,372
2017-12-07T06:57:10.340Z,400
2017-12-07T06:58:10.697Z,424
2017-12-07T06:59:10.612Z,448
2017-12-07T07:00:10.590Z,476
2017-12-07T07:01:10.382Z,504
2017-12-07T07:02:10.392Z,532
2017-12-07T07:03:10.204Z,560
2017-12-07T07:04:10.669Z,588
2017-12-07T07:05:10.685Z,612
2017-12-07T07:06:09.951Z,640
2017-12-07T07:07:10.196Z,668
2017-12-07T07:08:10.454Z,696
2017-12-07T07:09:10.467Z,724
2017-12-07T07:10:10.753Z,752
2017-12-07T07:11:10.277Z,780
2017-12-07T07:12:10.257Z,808
2017-12-07T07:13:10.322Z,840
2017-12-07T07:14:10.792Z,868
2017-12-07T07:15:11.205Z,892
2017-12-07T07:16:10.305Z,920
2017-12-07T07:17:10.325Z,952
2017-12-07T07:18:10.381Z,980
2017-12-07T07:19:10.846Z,1016
2017-12-07T07:20:10.099Z,1056
2017-12-07T07:21:10.864Z,1096
2017-12-07T07:22:10.882Z,1140
2017-12-07T07:23:10.903Z,1180
2017-12-07T07:24:10.151Z,1220
2017-12-07T07:25:10.417Z,1268
2017-12-07T07:26:10.702Z,1316
2017-12-07T07:27:10.948Z,1368
2017-12-07T07:28:10.703Z,1420
2017-12-07T07:29:10.971Z,1476
2017-12-07T07:30:10.489Z,1528
2017-12-07T07:31:10.762Z,1584
2017-12-07T07:32:10.787Z,1644
2017-12-07T07:33:11.068Z,1704
2017-12-07T07:34:11.032Z,1764
2017-12-07T07:35:11.041Z,1832
2017-12-07T07:36:10.801Z,1892
2017-12-07T07:37:10.813Z,1948
2017-12-07T07:38:11.076Z,2004
2017-12-07T07:39:10.835Z,2056
2017-12-07T07:40:10.596Z,2112
2017-12-07T07:41:11.121Z,2164
2017-12-07T07:42:11.142Z,2212
2017-12-07T07:43:11.135Z,2256
2017-12-07T07:44:10.638Z,2300
2017-12-07T07:45:10.912Z,2348
2017-12-07T07:46:10.666Z,2392
2017-12-07T07:47:11.200Z,2436
2017-12-07T07:48:10.746Z,2480
2017-12-07T07:49:11.207Z,2524
2017-12-07T07:50:11.223Z,2560
2017-12-07T07:51:10.978Z,2596
2017-12-07T07:52:10.996Z,2640
2017-12-07T07:53:11.273Z,2692
2017-12-07T07:54:11.270Z,2724
2017-12-07T07:55:11.285Z,2768
2017-12-07T07:56:10.789Z,2816
2017-12-07T07:57:10.805Z,2856
2017-12-07T07:58:10.813Z,2904
2017-12-07T07:59:11.077Z,2928
2017-12-07T08:00:11.091Z,2984
2017-12-07T08:01:11.113Z,3012
2017-12-07T08:02:11.370Z,3048
2017-12-07T08:03:10.923Z,3096
2017-12-07T08:04:11.159Z,3120
2017-12-07T08:05:10.902Z,3148
2017-12-07T08:06:11.440Z,3172
2017-12-07T08:07:11.171Z,3212
2017-12-07T08:08:11.200Z,3236
2017-12-07T08:09:11.454Z,3268
2017-12-07T08:10:10.962Z,3288
2017-12-07T08:11:11.489Z,3324
2017-12-07T08:12:11.499Z,3352
2017-12-07T08:13:11.257Z,3392
2017-12-07T08:14:11.522Z,3404
2017-12-07T08:15:11.537Z,3448
2017-12-07T08:16:11.311Z,3476
2017-12-07T08:17:11.307Z,3504
2017-12-07T08:18:11.371Z,3540
2017-12-07T08:19:11.593Z,3576
2017-12-07T08:20:11.602Z,3608
2017-12-07T08:21:11.618Z,3636
2017-12-07T08:22:11.126Z,3668
2017-12-07T08:23:11.393Z,3700
2017-12-07T08:24:11.654Z,3732
2017-12-07T08:25:11.413Z,3756
2017-12-07T08:26:11.432Z,3788
2017-12-07T08:27:11.693Z,3816
2017-12-07T08:28:11.715Z,3848
2017-12-07T08:29:11.726Z,3876
2017-12-07T08:30:11.753Z,3904
2017-12-07T08:31:11.506Z,3940
2017-12-07T08:32:11.265Z,3964
2017-12-07T08:33:11.576Z,4000
2017-12-07T08:34:11.803Z,4020
2017-12-07T08:35:11.554Z,4048
2017-12-07T08:36:11.835Z,4076
2017-12-07T08:37:11.582Z,4100
2017-12-07T08:38:11.355Z,4128
2017-12-07T08:39:11.868Z,4160
2017-12-07T08:40:11.626Z,4184
2017-12-07T08:41:11.637Z,4212
2017-12-07T08:42:11.674Z,4244
2017-12-07T08:43:11.919Z,4268
2017-12-07T08:44:11.705Z,4292
2017-12-07T08:45:11.950Z,4316
2017-12-07T08:46:11.713Z,4336
2017-12-07T08:47:11.975Z,4356
2017-12-07T08:48:11.794Z,4376
2017-12-07T08:49:11.764Z,4408
2017-12-07T08:50:11.509Z,4432
2017-12-07T08:51:12.028Z,4460
2017-12-07T08:52:12.052Z,4488
2017-12-07T08:53:12.067Z,4504
2017-12-07T08:54:19.369Z,4528
2017-12-07T08:55:11.836Z,4556
2017-12-07T08:56:12.103Z,4580
2017-12-07T08:57:12.118Z,4604
2017-12-07T08:58:12.142Z,4636
2017-12-07T08:59:12.171Z,4660
2017-12-07T09:00:11.658Z,4676
2017-12-07T09:01:12.179Z,4696
2017-12-07T09:02:11.943Z,4716
2017-12-07T09:03:12.259Z,4732
2017-12-07T09:04:11.723Z,4744
2017-12-07T09:05:12.249Z,4756
2017-12-07T09:06:12.008Z,4780
2017-12-07T09:07:12.272Z,4792
2017-12-07T09:08:12.289Z,4812
2017-12-07T09:09:12.304Z,4828
2017-12-07T09:10:12.070Z,4844
2017-12-07T09:11:12.351Z,4852
2017-12-07T09:12:12.360Z,4864
2017-12-07T09:13:12.373Z,4876
2017-12-07T09:14:12.130Z,4892
2017-12-07T09:15:11.888Z,4896
2017-12-07T09:16:11.909Z,4912
2017-12-07T09:17:12.442Z,4932
2017-12-07T09:18:12.235Z,4940
2017-12-07T09:19:12.216Z,4952
2017-12-07T09:20:12.479Z,4920
2017-12-07T09:21:12.232Z,4928
2017-12-07T09:22:12.248Z,4948
2017-12-07T09:23:12.278Z,5012
2017-12-07T09:24:12.546Z,5028
2017-12-07T09:25:12.297Z,5004
2017-12-07T09:26:12.309Z,5040
2017-12-07T09:27:12.580Z,5052
2017-12-07T09:28:12.092Z,5064
2017-12-07T09:29:12.615Z,5076
2017-12-07T09:30:12.645Z,5092
2017-12-07T09:31:12.393Z,5096
2017-12-07T09:32:12.151Z,5112
2017-12-07T09:33:12.471Z,5120
2017-12-07T09:34:12.438Z,5140
2017-12-07T09:35:12.722Z,5160
2017-12-07T09:36:12.224Z,5168
2017-12-07T09:37:12.482Z,5180
2017-12-07T09:38:12.502Z,5192
2017-12-07T09:39:12.771Z,5208
2017-12-07T09:40:12.536Z,5220
2017-12-07T09:41:12.800Z,5232
2017-12-07T09:42:12.869Z,5236
2017-12-07T09:43:12.583Z,5232
2017-12-07T09:44:12.853Z,5236
2017-12-07T09:45:12.629Z,5272
2017-12-07T09:46:12.881Z,8768
2017-12-07T09:47:12.645Z,23776
2017-12-07T09:48:12.728Z,33056
2017-12-07T09:49:12.928Z,32928
2017-12-07T09:50:12.946Z,32992
2017-12-07T09:51:12.708Z,34016
2017-12-07T09:52:12.726Z,32128
2017-12-07T09:53:12.744Z,33440
2017-12-07T09:54:13.015Z,35200
2017-12-07T09:55:12.801Z,35520
2017-12-07T09:56:13.061Z,35488
2017-12-07T09:57:12.571Z,36544
2017-12-07T09:58:12.689Z,36640
2017-12-07T09:59:12.858Z,35648
2017-12-07T10:00:12.876Z,36672
2017-12-07T10:01:13.150Z,37472
2017-12-07T10:02:13.178Z,37792
2017-12-07T10:03:12.989Z,37408
2017-12-07T10:04:13.215Z,36256
2017-12-07T10:05:12.979Z,37536
2017-12-07T10:06:13.001Z,38752
2017-12-07T10:07:12.813Z,40192
2017-12-07T10:08:13.048Z,39232
2017-12-07T10:09:13.070Z,39328
2017-12-07T10:10:13.096Z,39072
2017-12-07T10:11:13.375Z,37568
2017-12-07T10:12:13.396Z,36672
2017-12-07T10:13:12.915Z,37312
2017-12-07T10:14:13.446Z,38528
2017-12-07T10:15:13.467Z,40352
2017-12-07T10:16:13.253Z,41760
2017-12-07T10:17:13.263Z,42624
2017-12-07T10:18:13.336Z,44320
2017-12-07T10:19:13.679Z,44672
2017-12-07T10:20:13.089Z,44256
2017-12-07T10:21:13.371Z,44224
2017-12-07T10:22:13.648Z,41888
2017-12-07T10:23:13.422Z,44768
2017-12-07T10:24:13.444Z,48640
2017-12-07T10:25:13.766Z,48032
2017-12-07T10:26:13.776Z,45056
2017-12-07T10:27:13.524Z,42144
2017-12-07T10:28:13.554Z,43488
2017-12-07T10:29:13.838Z,47840
2017-12-07T10:30:13.609Z,50912
2017-12-07T10:31:13.378Z,53248
2017-12-07T10:32:13.661Z,51488
2017-12-07T10:33:13.737Z,51872
2017-12-07T10:34:13.716Z,50176
2017-12-07T10:35:13.493Z,49248
2017-12-07T10:36:14.032Z,51936
2017-12-07T10:37:13.792Z,50240
2017-12-07T10:38:13.573Z,48576
2017-12-07T10:39:13.854Z,52960
2017-12-07T10:40:13.881Z,49312
2017-12-07T10:41:14.161Z,44000
2017-12-07T10:42:13.936Z,53728
2017-12-07T10:43:14.218Z,62560
2017-12-07T10:44:14.250Z,57568
2017-12-07T10:45:14.020Z,51104
2017-12-07T10:46:13.799Z,50528
2017-12-07T10:47:14.339Z,54560
2017-12-07T10:48:14.413Z,57824
2017-12-07T10:49:14.135Z,53472
2017-12-07T10:50:13.960Z,50048
2017-12-07T10:51:14.451Z,52736
2017-12-07T10:52:14.228Z,48896
2017-12-07T10:53:14.259Z,41824
2017-12-07T10:54:14.040Z,38400
2017-12-07T10:55:14.561Z,38592
2017-12-07T10:56:14.345Z,38944
2017-12-07T10:57:14.622Z,38016
2017-12-07T10:58:14.392Z,37408
2017-12-07T10:59:14.749Z,36000
2017-12-07T11:00:14.206Z,33408
2017-12-07T11:01:14.760Z,31616
2017-12-07T11:02:14.512Z,31456
2017-12-07T11:03:14.537Z,34016
2017-12-07T11:04:14.813Z,39136
2017-12-07T11:05:14.843Z,46784
2017-12-07T11:06:14.939Z,47936
2017-12-07T11:07:14.672Z,48224
2017-12-07T11:08:14.943Z,44000
2017-12-07T11:09:14.722Z,38656
2017-12-07T11:10:15.001Z,38240
2017-12-07T11:11:14.779Z,33312
2017-12-07T11:12:14.808Z,32064
2017-12-07T11:13:14.839Z,34112
2017-12-07T11:14:15.125Z,36096
2017-12-07T11:15:15.207Z,38560
2017-12-07T11:16:14.935Z,47040
2017-12-07T11:17:14.959Z,50496
2017-12-07T11:18:15.249Z,47456
2017-12-07T11:19:14.830Z,47264
2017-12-07T11:20:14.797Z,46048
2017-12-07T11:21:15.483Z,44928
2017-12-07T11:22:15.367Z,44192
2017-12-07T11:23:14.885Z,42816
2017-12-07T11:24:15.178Z,40416
2017-12-07T11:25:15.199Z,37536
2017-12-07T11:26:15.485Z,37376
2017-12-07T11:27:15.506Z,39424
2017-12-07T11:28:15.287Z,42304
2017-12-07T11:29:14.809Z,43136
2017-12-07T11:30:15.606Z,43936
2017-12-07T11:31:15.634Z,49216
2017-12-07T11:32:15.408Z,53632
2017-12-07T11:33:15.183Z,55904
2017-12-07T11:34:15.460Z,55776
2017-12-07T11:35:15.750Z,54208
2017-12-07T11:36:15.319Z,53056
2017-12-07T11:37:15.812Z,55072
2017-12-07T11:38:15.587Z,57792
2017-12-07T11:39:15.619Z,55872
2017-12-07T11:40:15.643Z,54688
2017-12-07T11:41:15.946Z,56448
2017-12-07T11:42:15.710Z,59584
2017-12-07T11:43:15.744Z,58816
2017-12-07T11:44:16.023Z,57152
2017-12-07T11:45:16.054Z,56736
2017-12-07T11:46:15.928Z,54912
2017-12-07T11:47:15.862Z,47936
2017-12-07T11:48:15.883Z,45312
2017-12-07T11:49:16.169Z,45184
2017-12-07T11:50:16.200Z,49312
2017-12-07T11:51:16.295Z,52736
2017-12-07T11:52:16.275Z,57024
2017-12-07T11:53:16.289Z,58176
2017-12-07T11:54:15.836Z,60512
2017-12-07T11:55:16.102Z,61312
2017-12-07T11:56:16.141Z,61760
2017-12-07T11:57:16.420Z,62496
2017-12-07T11:58:16.451Z,61536
2017-12-07T11:59:16.230Z,62272
2017-12-07T12:00:16.262Z,61600
2017-12-07T12:01:16.555Z,62208
2017-12-07T12:02:16.337Z,63040
2017-12-07T12:03:15.865Z,62304
2017-12-07T12:04:16.137Z,62464
2017-12-07T12:05:16.489Z,65792
2017-12-07T12:06:16.541Z,69568
2017-12-07T12:07:16.241Z,71648
2017-12-07T12:08:16.520Z,73568
2017-12-07T12:09:16.796Z,75776
2017-12-07T12:10:16.330Z,75808
2017-12-07T12:11:16.425Z,76288
2017-12-07T12:12:16.640Z,79584
2017-12-07T12:13:16.673Z,81280
2017-12-07T12:14:16.456Z,79648
2017-12-07T12:15:16.490Z,78048
2017-12-07T12:16:16.823Z,78048
2017-12-07T12:17:17.059Z,78464
2017-12-07T12:18:16.589Z,79872
2017-12-07T12:19:16.875Z,80160
2017-12-07T12:20:16.899Z,82656
2017-12-07T12:21:17.231Z,82944
2017-12-07T12:22:17.311Z,81248
2017-12-07T12:23:16.745Z,74368
2017-12-07T12:24:17.031Z,68960
2017-12-07T12:25:17.054Z,71296
2017-12-07T12:26:17.091Z,77600
2017-12-07T12:27:17.374Z,80544
2017-12-07T12:28:17.405Z,82272
2017-12-07T12:29:17.437Z,81408
2017-12-07T12:30:17.213Z,82048
2017-12-07T12:31:17.247Z,81952
2017-12-07T12:32:16.772Z,83168
2017-12-07T12:33:17.053Z,81280
2017-12-07T12:34:17.084Z,77088
2017-12-07T12:35:17.372Z,72736
2017-12-07T12:36:17.203Z,71936
2017-12-07T12:37:17.692Z,75200
2017-12-07T12:38:17.211Z,83616
2017-12-07T12:39:17.815Z,86656
2017-12-07T12:40:17.788Z,84640
2017-12-07T12:41:17.560Z,79680
2017-12-07T12:42:17.855Z,81056
2017-12-07T12:43:17.875Z,81664
2017-12-07T12:44:17.663Z,81536
2017-12-07T12:45:17.691Z,81312
2017-12-07T12:46:17.989Z,81536
2017-12-07T12:47:17.763Z,84512
2017-12-07T12:48:18.065Z,83136
2017-12-07T12:49:18.074Z,80064
2017-12-07T12:50:17.851Z,75680
2017-12-07T12:51:18.192Z,72000
2017-12-07T12:52:18.169Z,70496
2017-12-07T12:53:17.947Z,72704
2017-12-07T12:54:18.231Z,76224
2017-12-07T12:55:18.030Z,78112
2017-12-07T12:56:18.297Z,77120
2017-12-07T12:57:18.073Z,77536
2017-12-07T12:58:18.111Z,78496
2017-12-07T12:59:18.398Z,78464
2017-12-07T13:00:18.425Z,72416
2017-12-07T13:01:18.206Z,63392
2017-12-07T13:02:18.233Z,63456
2017-12-07T13:03:18.036Z,65760
2017-12-07T13:04:18.065Z,68864
2017-12-07T13:05:18.582Z,74432
2017-12-07T13:06:18.726Z,73280
2017-12-07T13:07:18.393Z,75328
2017-12-07T13:08:18.680Z,73120
2017-12-07T13:09:18.726Z,61408
2017-12-07T13:10:18.765Z,45280
2017-12-07T13:11:18.521Z,25888
2017-12-07T13:12:18.821Z,10536
2017-12-07T13:13:18.591Z,3744
2017-12-07T13:14:18.611Z,3704
2017-12-07T13:15:18.899Z,3680
2017-12-07T13:16:19.033Z,3656
2017-12-07T13:17:18.456Z,3640
2017-12-07T13:18:18.737Z,3604
2017-12-07T13:19:18.261Z,3568
2017-12-07T13:20:19.049Z,3540
2017-12-07T13:21:18.878Z,3512
2017-12-07T13:22:19.118Z,3488
2017-12-07T13:23:18.877Z,3460
2017-12-07T13:24:19.167Z,3424
2017-12-07T13:25:18.944Z,3392
2017-12-07T13:26:19.231Z,3372
2017-12-07T13:27:19.249Z,3352
2017-12-07T13:28:19.261Z,3316
2017-12-07T13:29:19.041Z,3296
2017-12-07T13:30:18.813Z,3284
2017-12-07T13:31:19.095Z,3260
2017-12-07T13:32:18.913Z,3244
2017-12-07T13:33:19.402Z,3220
2017-12-07T13:34:19.163Z,3200
2017-12-07T13:35:19.189Z,3176
2017-12-07T13:36:19.519Z,3168
2017-12-07T13:37:18.988Z,3152
2017-12-07T13:38:19.257Z,3136
2017-12-07T13:39:19.537Z,3116
2017-12-07T13:40:19.559Z,3092
2017-12-07T13:41:19.689Z,3072
2017-12-07T13:42:19.601Z,3056
2017-12-07T13:43:19.447Z,3028
2017-12-07T13:44:19.400Z,3008
2017-12-07T13:45:19.415Z,2984
2017-12-07T13:46:19.697Z,2960
2017-12-07T13:47:19.718Z,2940
2017-12-07T13:48:19.737Z,2920
2017-12-07T13:49:19.758Z,2896
2017-12-07T13:50:19.790Z,2876
2017-12-07T13:51:19.928Z,2856
2017-12-07T13:52:19.826Z,2844